Time;durP1;ratioP1;P1;durP2;ratioP2;P2;SDS_P1;SDS_P2;PMS_P1;PMS_P2;Temp;Humidity;BMP_temperature;BMP_pressure;BME280_temperature;BME280_humidity;BME280_pressure;Samples;Min_cycle;Max_cycle;Signal;HPM_P1;HPM_P2
2024/02/07 00:01:41;;;;;;;10.40;3.95;;;;;;;;;;5041670;28;20413;-63
2024/02/07 00:04:07;;;;;;;10.25;4.28;;;;;;;;;;5044370;28;20036;-62
2024/02/07 00:06:33;;;;;;;12.18;5.07;;;;;;;;;;5039763;28;20027;-63
2024/02/07 00:08:59;;;;;;;9.65;3.67;;;;;;;;;;5052241;28;20048;-62
2024/02/07 00:11:25;;;;;;;9.80;4.35;;;;;;;;;;5032147;28;20021;-62
2024/02/07 00:13:51;;;;;;;16.33;4.65;;;;;;;;;;5032332;28;20048;-63
2024/02/07 00:16:19;;;;;;;12.75;3.88;;;;;;;;;;5043310;28;20040;-62
2024/02/07 00:18:46;;;;;;;10.15;4.45;;;;;;;;;;5051431;28;20045;-62
2024/02/07 00:21:12;;;;;;;13.50;4.28;;;;;;;;;;5015595;28;20371;-63
2024/02/07 00:23:38;;;;;;;10.52;3.58;;;;;;;;;;5041474;28;20024;-63
2024/02/07 00:26:04;;;;;;;9.63;3.78;;;;;;;;;;5034109;28;20021;-60
2024/02/07 00:28:30;;;;;;;12.00;4.32;;;;;;;;;;5036040;28;20021;-57
2024/02/07 00:30:56;;;;;;;10.75;4.35;;;;;;;;;;5036478;28;20044;-58
2024/02/07 00:33:22;;;;;;;9.20;3.55;;;;;;;;;;5036893;28;20067;-58
2024/02/07 00:35:48;;;;;;;7.78;3.92;;;;;;;;;;5043252;28;20036;-60
2024/02/07 00:38:14;;;;;;;10.25;3.92;;;;;;;;;;5040215;28;20033;-61
2024/02/07 00:40:40;;;;;;;12.93;4.05;;;;;;;;;;5041174;28;20033;-58
2024/02/07 00:43:07;;;;;;;10.85;3.58;;;;;;;;;;5041068;28;20076;-58
2024/02/07 00:45:33;;;;;;;8.50;2.95;;;;;;;;;;5031793;28;20025;-57
2024/02/07 00:47:59;;;;;;;11.93;3.75;;;;;;;;;;5033623;28;20013;-59
2024/02/07 00:50:25;;;;;;;17.73;4.05;;;;;;;;;;5033486;28;20053;-58
2024/02/07 00:52:51;;;;;;;8.48;3.53;;;;;;;;;;5042476;28;20430;-58
2024/02/07 00:55:17;;;;;;;10.07;3.40;;;;;;;;;;5040525;28;20147;-57
2024/02/07 00:57:43;;;;;;;5.80;3.05;;;;;;;;;;5038785;28;20030;-58
2024/02/07 01:00:13;;;;;;;14.68;3.85;;;;;;;;;;5035660;28;20445;-58
2024/02/07 01:02:40;;;;;;;7.18;3.53;;;;;;;;;;5035580;28;20021;-58
2024/02/07 01:05:08;;;;;;;13.27;3.67;;;;;;;;;;5036074;28;20111;-58
2024/02/07 01:07:34;;;;;;;6.13;2.67;;;;;;;;;;5042695;28;20111;-58
2024/02/07 01:10:00;;;;;;;9.02;3.42;;;;;;;;;;5052068;28;20021;-60
2024/02/07 01:12:26;;;;;;;10.07;2.83;;;;;;;;;;5050624;28;20029;-57
2024/02/07 01:14:52;;;;;;;5.95;1.83;;;;;;;;;;5045243;28;20113;-58
2024/02/07 01:17:18;;;;;;;5.47;1.85;;;;;;;;;;5035116;28;20063;-58
2024/02/07 01:19:44;;;;;;;7.30;1.65;;;;;;;;;;5035061;28;20482;-58
2024/02/07 01:22:10;;;;;;;2.88;1.10;;;;;;;;;;5035342;28;20029;-57
2024/02/07 01:24:36;;;;;;;1.40;1.00;;;;;;;;;;5035183;28;20494;-58
2024/02/07 01:27:04;;;;;;;1.80;0.85;;;;;;;;;;5045050;28;20151;-58
2024/02/07 01:29:30;;;;;;;0.65;0.47;;;;;;;;;;5041242;28;20029;-57
2024/02/07 01:31:56;;;;;;;1.48;0.40;;;;;;;;;;5127041;23;20065;-78
2024/02/07 01:34:23;;;;;;;0.30;0.20;;;;;;;;;;5034396;28;20029;-78
2024/02/07 01:36:49;;;;;;;0.30;0.30;;;;;;;;;;5016354;28;20030;-78
2024/02/07 01:39:18;;;;;;;0.40;0.20;;;;;;;;;;5040759;23;20064;-63
2024/02/07 01:41:59;;;;;;;0.35;0.20;;;;;;;;;;5014859;28;20491;-62
2024/02/07 01:44:26;;;;;;;1.85;0.50;;;;;;;;;;5027364;22;20101;-77
2024/02/07 01:47:11;;;;;;;1.35;0.28;;;;;;;;;;5032032;28;20065;-77
2024/02/07 01:49:37;;;;;;;0.55;0.30;;;;;;;;;;5034184;28;20120;-78
2024/02/07 01:52:03;;;;;;;2.05;0.20;;;;;;;;;;5076027;23;20054;-58
2024/02/07 01:54:29;;;;;;;1.20;0.50;;;;;;;;;;5034487;28;20033;-58
2024/02/07 01:57:01;;;;;;;3.58;0.40;;;;;;;;;;5033569;28;20033;-57
2024/02/07 01:59:28;;;;;;;4.82;0.50;;;;;;;;;;5029028;28;20029;-57
2024/02/07 02:01:55;;;;;;;2.15;0.70;;;;;;;;;;5028069;28;20020;-59
2024/02/07 02:04:20;;;;;;;1.90;0.43;;;;;;;;;;5033960;28;20034;-56
2024/02/07 02:06:46;;;;;;;0.82;0.40;;;;;;;;;;5033765;28;20064;-57
2024/02/07 02:09:13;;;;;;;2.42;0.65;;;;;;;;;;5033777;28;20025;-57
2024/02/07 02:11:41;;;;;;;3.03;0.50;;;;;;;;;;5034310;28;20048;-58
2024/02/07 02:14:08;;;;;;;2.90;0.40;;;;;;;;;;5033491;28;20445;-56
2024/02/07 02:16:35;;;;;;;1.30;0.50;;;;;;;;;;5026293;28;20022;-58
2024/02/07 02:19:01;;;;;;;3.00;0.95;;;;;;;;;;5031515;28;20489;-57
2024/02/07 02:21:30;;;;;;;0.90;0.40;;;;;;;;;;5034121;28;20044;-57
2024/02/07 02:24:21;;;;;;;0.80;0.50;;;;;;;;;;5034034;28;20108;-57
2024/02/07 02:27:07;;;;;;;1.08;0.50;;;;;;;;;;5027600;28;20025;-56
2024/02/07 02:29:37;;;;;;;3.65;0.55;;;;;;;;;;5032573;28;20038;-57
2024/02/07 02:32:04;;;;;;;3.03;0.50;;;;;;;;;;5032086;28;20083;-57
2024/02/07 02:34:30;;;;;;;3.60;0.50;;;;;;;;;;5020964;28;20033;-57
2024/02/07 02:36:58;;;;;;;2.22;0.47;;;;;;;;;;5025346;28;20028;-58
2024/02/07 02:39:27;;;;;;;0.77;0.30;;;;;;;;;;5033648;28;20029;-57
2024/02/07 02:41:53;;;;;;;4.85;0.70;;;;;;;;;;5018783;28;20457;-57
2024/02/07 02:44:19;;;;;;;3.20;0.35;;;;;;;;;;5030708;28;20056;-59
2024/02/07 02:46:45;;;;;;;0.82;0.30;;;;;;;;;;5029650;28;20121;-57
2024/02/07 02:49:11;;;;;;;1.77;0.40;;;;;;;;;;5032087;28;20014;-58
2024/02/07 02:51:37;;;;;;;3.50;0.40;;;;;;;;;;5033336;28;20084;-57
2024/02/07 02:54:03;;;;;;;3.08;0.50;;;;;;;;;;5033333;28;20014;-58
2024/02/07 02:56:31;;;;;;;3.15;0.45;;;;;;;;;;5031249;28;20492;-58
2024/02/07 02:58:57;;;;;;;3.30;0.52;;;;;;;;;;5030348;28;20018;-57
2024/02/07 03:01:23;;;;;;;1.17;0.50;;;;;;;;;;5033288;28;20087;-57
2024/02/07 03:03:55;;;;;;;1.70;0.50;;;;;;;;;;5032733;28;20111;-57
2024/02/07 03:06:39;;;;;;;2.03;0.52;;;;;;;;;;5030809;28;20022;-60
2024/02/07 03:09:07;;;;;;;2.22;0.32;;;;;;;;;;5014745;28;20025;-61
2024/02/07 03:11:33;;;;;;;0.32;0.32;;;;;;;;;;5028668;28;20026;-60
2024/02/07 03:14:01;;;;;;;0.85;0.32;;;;;;;;;;5013655;28;20084;-61
2024/02/07 03:16:28;;;;;;;0.50;0.28;;;;;;;;;;5030838;28;20104;-61
2024/02/07 03:18:58;;;;;;;0.45;0.32;;;;;;;;;;5032245;28;20017;-61
2024/02/07 03:21:24;;;;;;;0.75;0.20;;;;;;;;;;5032598;28;20504;-61
2024/02/07 03:23:50;;;;;;;0.52;0.30;;;;;;;;;;5032702;28;20029;-61
2024/02/07 03:26:18;;;;;;;2.17;0.35;;;;;;;;;;5031449;28;20466;-60
2024/02/07 03:28:44;;;;;;;0.25;0.20;;;;;;;;;;5029319;28;20076;-61
2024/02/07 03:31:10;;;;;;;0.85;0.50;;;;;;;;;;5021621;28;20034;-60
2024/02/07 03:33:36;;;;;;;1.15;0.60;;;;;;;;;;5029347;28;20025;-60
2024/02/07 03:36:03;;;;;;;1.70;0.45;;;;;;;;;;5031685;28;20744;-60
2024/02/07 03:38:29;;;;;;;1.90;0.40;;;;;;;;;;5032036;28;20040;-60
2024/02/07 03:40:55;;;;;;;2.38;0.60;;;;;;;;;;5032010;28;20033;-60
2024/02/07 03:43:22;;;;;;;0.82;0.50;;;;;;;;;;5029714;28;20033;-60
2024/02/07 03:45:49;;;;;;;2.50;0.30;;;;;;;;;;5032376;28;20490;-60
2024/02/07 03:48:17;;;;;;;2.05;0.75;;;;;;;;;;5031102;28;20033;-60
2024/02/07 03:50:43;;;;;;;3.25;0.40;;;;;;;;;;5032445;28;20076;-60
2024/02/07 03:53:09;;;;;;;2.55;0.43;;;;;;;;;;5032267;28;20029;-60
2024/02/07 03:55:36;;;;;;;1.70;0.60;;;;;;;;;;5031524;28;20098;-60
2024/02/07 03:58:02;;;;;;;3.15;0.85;;;;;;;;;;5030867;28;20045;-60
2024/02/07 04:00:28;;;;;;;1.55;0.40;;;;;;;;;;5032310;28;20421;-60
2024/02/07 04:02:54;;;;;;;5.15;0.70;;;;;;;;;;5032103;28;20025;-60
2024/02/07 04:05:20;;;;;;;3.60;0.57;;;;;;;;;;5027938;28;20025;-60
2024/02/07 04:07:46;;;;;;;1.13;0.43;;;;;;;;;;5031928;28;20470;-60
2024/02/07 04:10:12;;;;;;;3.92;0.65;;;;;;;;;;5031920;28;20059;-60
2024/02/07 05:15:46;;;;;;;1.52;0.50;;;;;;;;;;5033432;28;20083;-60
2024/02/07 05:18:12;;;;;;;4.80;0.50;;;;;;;;;;5034668;28;20033;-60
2024/02/07 05:20:38;;;;;;;3.03;0.60;;;;;;;;;;5033430;28;20052;-60
2024/02/07 05:23:03;;;;;;;3.80;0.52;;;;;;;;;;5035007;28;20454;-60
2024/02/07 05:25:32;;;;;;;1.60;0.70;;;;;;;;;;5033796;28;20413;-61
2024/02/07 05:27:58;;;;;;;4.35;0.95;;;;;;;;;;5029708;28;20029;-60
2024/02/07 05:30:24;;;;;;;8.00;0.73;;;;;;;;;;5034517;28;20064;-61
2024/02/07 05:32:50;;;;;;;7.53;0.70;;;;;;;;;;5034263;28;20037;-60
2024/02/07 05:35:16;;;;;;;2.88;0.70;;;;;;;;;;5033148;28;20036;-60
2024/02/07 05:37:42;;;;;;;6.75;0.70;;;;;;;;;;5034192;28;20036;-60
2024/02/07 05:40:08;;;;;;;3.33;0.80;;;;;;;;;;5034720;28;20030;-60
2024/02/07 05:42:34;;;;;;;9.38;1.13;;;;;;;;;;5033846;28;20026;-60
2024/02/07 05:45:01;;;;;;;6.97;0.60;;;;;;;;;;5029232;28;20401;-59
2024/02/07 05:47:27;;;;;;;4.13;0.70;;;;;;;;;;5033626;28;20025;-60
2024/02/07 05:49:53;;;;;;;5.20;0.50;;;;;;;;;;5034623;28;20630;-61
2024/02/07 05:52:20;;;;;;;3.40;0.82;;;;;;;;;;5034435;28;20053;-60
2024/02/07 05:54:49;;;;;;;1.02;0.47;;;;;;;;;;5034202;28;20029;-60
2024/02/07 05:57:15;;;;;;;6.38;0.75;;;;;;;;;;5032834;28;20041;-59
2024/02/07 05:59:41;;;;;;;2.85;0.50;;;;;;;;;;5028365;28;20037;-60
2024/02/07 06:02:07;;;;;;;3.00;0.73;;;;;;;;;;5034246;28;20079;-60
2024/02/07 06:04:37;;;;;;;5.07;0.68;;;;;;;;;;5033874;28;20060;-60
2024/02/07 06:07:03;;;;;;;4.53;0.60;;;;;;;;;;5032667;28;20036;-60
2024/02/07 06:09:29;;;;;;;5.50;0.90;;;;;;;;;;5033971;28;20030;-60
2024/02/07 06:11:55;;;;;;;4.70;0.75;;;;;;;;;;5033333;28;20026;-60
2024/02/07 06:14:21;;;;;;;2.85;0.90;;;;;;;;;;5034250;28;20022;-60
2024/02/07 06:16:47;;;;;;;6.80;0.90;;;;;;;;;;5033467;28;20398;-60
2024/02/07 06:19:13;;;;;;;3.95;0.65;;;;;;;;;;5033718;28;20478;-60
2024/02/07 06:21:39;;;;;;;10.30;1.50;;;;;;;;;;5033613;28;20447;-60
2024/02/07 06:24:05;;;;;;;11.45;0.88;;;;;;;;;;5033464;28;20021;-60
2024/02/07 06:26:31;;;;;;;3.42;0.70;;;;;;;;;;5032715;28;20032;-60
2024/02/07 06:28:57;;;;;;;3.83;1.00;;;;;;;;;;5030749;28;20487;-60
2024/02/07 06:31:23;;;;;;;3.33;0.90;;;;;;;;;;5031640;28;20437;-60
2024/02/07 06:33:49;;;;;;;3.30;0.60;;;;;;;;;;5030454;28;20029;-60
2024/02/07 06:36:15;;;;;;;12.25;1.17;;;;;;;;;;5032727;28;20045;-59
2024/02/07 06:38:41;;;;;;;4.28;0.93;;;;;;;;;;5031610;28;20026;-59
2024/02/07 06:41:07;;;;;;;8.27;1.75;;;;;;;;;;5032725;28;20065;-59
2024/02/07 06:43:33;;;;;;;5.15;0.80;;;;;;;;;;5032382;28;20026;-59
2024/02/07 06:46:02;;;;;;;5.00;0.77;;;;;;;;;;5027456;28;20159;-60
2024/02/07 06:48:28;;;;;;;5.65;1.27;;;;;;;;;;5030666;28;20413;-59
2024/02/07 06:50:54;;;;;;;5.57;1.05;;;;;;;;;;5032418;28;20041;-60
2024/02/07 06:53:20;;;;;;;4.18;1.08;;;;;;;;;;5032809;28;20084;-59
2024/02/07 06:55:47;;;;;;;8.65;1.20;;;;;;;;;;5030617;28;20037;-59
2024/02/07 06:58:13;;;;;;;5.05;1.63;;;;;;;;;;5032117;28;20057;-59
2024/02/07 07:00:39;;;;;;;5.10;1.02;;;;;;;;;;5028258;28;20457;-59
2024/02/07 07:03:05;;;;;;;7.20;1.00;;;;;;;;;;5029485;28;20032;-59
2024/02/07 07:05:31;;;;;;;3.28;0.90;;;;;;;;;;5031220;28;20021;-59
2024/02/07 07:07:57;;;;;;;3.70;0.93;;;;;;;;;;5031302;28;20079;-60
2024/02/07 07:10:23;;;;;;;4.30;0.90;;;;;;;;;;5031454;28;20410;-59
2024/02/07 07:12:49;;;;;;;9.68;1.85;;;;;;;;;;5031277;28;20378;-59
2024/02/07 07:15:15;;;;;;;3.67;0.93;;;;;;;;;;5031880;28;20044;-59
2024/02/07 07:17:41;;;;;;;5.38;1.20;;;;;;;;;;5031035;28;20101;-59
2024/02/07 07:20:07;;;;;;;10.35;1.70;;;;;;;;;;5030173;28;20474;-59
2024/02/07 07:22:33;;;;;;;9.32;1.45;;;;;;;;;;5030267;28;20426;-59
2024/02/07 07:24:59;;;;;;;8.70;1.65;;;;;;;;;;5031816;28;20409;-60
2024/02/07 07:27:25;;;;;;;3.97;1.33;;;;;;;;;;5030122;28;20041;-59
2024/02/07 07:29:51;;;;;;;4.43;1.05;;;;;;;;;;5029524;28;20489;-59
2024/02/07 07:32:17;;;;;;;4.72;1.02;;;;;;;;;;5030640;28;20446;-59
2024/02/07 07:34:43;;;;;;;12.88;1.90;;;;;;;;;;5031122;28;20486;-59
2024/02/07 07:37:09;;;;;;;2.47;1.27;;;;;;;;;;5029670;28;20048;-60
2024/02/07 07:39:35;;;;;;;8.80;1.45;;;;;;;;;;5027312;28;20034;-59
2024/02/07 07:42:01;;;;;;;11.10;1.75;;;;;;;;;;5029810;28;20120;-59
2024/02/07 07:44:27;;;;;;;11.95;1.60;;;;;;;;;;5021412;28;20030;-59
2024/02/07 07:46:53;;;;;;;9.38;1.45;;;;;;;;;;5011906;28;20101;-60
2024/02/07 07:49:19;;;;;;;10.90;1.95;;;;;;;;;;5025839;28;20029;-60
2024/02/07 07:51:45;;;;;;;6.78;1.50;;;;;;;;;;5012667;28;20117;-60
2024/02/07 07:54:11;;;;;;;8.48;1.65;;;;;;;;;;5030666;28;20021;-59
2024/02/07 07:56:37;;;;;;;7.13;1.80;;;;;;;;;;5025993;28;20411;-59
2024/02/07 07:59:03;;;;;;;11.95;1.70;;;;;;;;;;5028610;28;20036;-60
2024/02/07 08:01:29;;;;;;;12.07;1.90;;;;;;;;;;5029754;28;20033;-60
2024/02/07 08:03:55;;;;;;;3.40;1.08;;;;;;;;;;5031067;28;20496;-60
2024/02/07 08:06:22;;;;;;;8.82;1.85;;;;;;;;;;5028356;28;20025;-60
2024/02/07 08:08:48;;;;;;;6.63;1.90;;;;;;;;;;5012763;28;20037;-60
2024/02/07 08:11:14;;;;;;;10.55;1.98;;;;;;;;;;5021500;28;20502;-59
2024/02/07 08:13:40;;;;;;;9.02;2.20;;;;;;;;;;5025231;28;20025;-60
2024/02/07 08:16:07;;;;;;;9.70;1.70;;;;;;;;;;5031061;28;20060;-59
2024/02/07 08:18:33;;;;;;;8.63;1.83;;;;;;;;;;5030887;28;20498;-60
2024/02/07 08:20:59;;;;;;;13.43;2.60;;;;;;;;;;5029974;28;20059;-60
2024/02/07 08:23:25;;;;;;;7.10;1.95;;;;;;;;;;5023246;28;20033;-58
2024/02/07 08:25:51;;;;;;;6.68;1.60;;;;;;;;;;5030994;28;20029;-60
2024/02/07 08:28:17;;;;;;;9.95;1.98;;;;;;;;;;5030753;28;20084;-60
2024/02/07 08:30:43;;;;;;;10.82;2.63;;;;;;;;;;5020504;28;20064;-61
2024/02/07 08:33:09;;;;;;;8.88;1.98;;;;;;;;;;5030761;28;20398;-61
2024/02/07 08:35:35;;;;;;;14.68;1.70;;;;;;;;;;5030510;28;20076;-59
2024/02/07 08:38:01;;;;;;;14.30;2.40;;;;;;;;;;5029137;28;20111;-60
2024/02/07 08:40:28;;;;;;;12.93;1.92;;;;;;;;;;5028580;28;20021;-61
2024/02/07 08:42:54;;;;;;;6.20;1.85;;;;;;;;;;5030260;28;20487;-60
2024/02/07 08:45:23;;;;;;;7.05;1.77;;;;;;;;;;5030043;28;20048;-60
2024/02/07 08:47:49;;;;;;;8.32;1.95;;;;;;;;;;5028125;28;20055;-60
2024/02/07 08:50:15;;;;;;;7.70;2.03;;;;;;;;;;5025121;28;20032;-58
2024/02/07 08:52:42;;;;;;;9.93;2.50;;;;;;;;;;5023059;28;20041;-60
2024/02/07 08:55:08;;;;;;;9.45;1.70;;;;;;;;;;5023266;28;20044;-60
2024/02/07 08:57:39;;;;;;;3.67;1.75;;;;;;;;;;5028453;28;20056;-60
2024/02/07 09:00:05;;;;;;;13.52;1.88;;;;;;;;;;5017595;28;20437;-59
2024/02/07 09:02:31;;;;;;;10.48;1.77;;;;;;;;;;5028863;28;20098;-59
2024/02/07 09:05:03;;;;;;;5.43;1.30;;;;;;;;;;5026330;28;20340;-59
2024/02/07 09:07:29;;;;;;;9.40;2.10;;;;;;;;;;5024021;28;20025;-59
2024/02/07 09:09:55;;;;;;;9.38;1.55;;;;;;;;;;5033060;28;20478;-59
2024/02/07 09:12:21;;;;;;;2.85;1.20;;;;;;;;;;5033021;28;20121;-59
2024/02/07 09:14:47;;;;;;;6.20;1.20;;;;;;;;;;5032161;28;20030;-59
2024/02/07 09:17:13;;;;;;;7.13;1.40;;;;;;;;;;5031902;28;20029;-59
2024/02/07 09:19:39;;;;;;;7.97;1.50;;;;;;;;;;5028524;28;20425;-59
2024/02/07 09:22:05;;;;;;;5.53;1.65;;;;;;;;;;5029564;28;20347;-59
2024/02/07 09:24:31;;;;;;;14.27;1.55;;;;;;;;;;5033918;28;20378;-59
2024/02/07 09:26:58;;;;;;;8.27;1.25;;;;;;;;;;5029123;28;20457;-59
2024/02/07 09:29:24;;;;;;;5.65;1.60;;;;;;;;;;5034440;28;20092;-59
2024/02/07 09:31:50;;;;;;;9.63;1.98;;;;;;;;;;5031580;28;20029;-58
2024/02/07 09:34:16;;;;;;;11.82;1.50;;;;;;;;;;5033903;28;20017;-59
2024/02/07 09:36:42;;;;;;;7.28;1.10;;;;;;;;;;5029076;28;20055;-59
2024/02/07 09:39:08;;;;;;;7.45;1.48;;;;;;;;;;5033326;28;20029;-59
2024/02/07 09:41:35;;;;;;;12.90;2.05;;;;;;;;;;5032063;28;20040;-59
2024/02/07 09:44:03;;;;;;;12.32;2.38;;;;;;;;;;5027710;28;20104;-59
2024/02/07 09:46:32;;;;;;;11.52;1.90;;;;;;;;;;5033761;28;20065;-59
2024/02/07 09:48:58;;;;;;;13.63;2.83;;;;;;;;;;5028694;28;20033;-59
2024/02/07 09:51:25;;;;;;;12.13;2.17;;;;;;;;;;5033472;28;20056;-60
2024/02/07 09:53:52;;;;;;;10.50;1.77;;;;;;;;;;5033370;28;20168;-59
2024/02/07 09:56:18;;;;;;;10.10;1.83;;;;;;;;;;5036223;28;20037;-60
2024/02/07 09:58:44;;;;;;;9.85;2.63;;;;;;;;;;5031332;28;20423;-60
2024/02/07 10:01:13;;;;;;;12.63;2.25;;;;;;;;;;5027894;28;20069;-60
2024/02/07 10:03:40;;;;;;;12.23;2.10;;;;;;;;;;5033482;28;20029;-60
2024/02/07 10:06:08;;;;;;;9.57;2.08;;;;;;;;;;5033308;28;20030;-60
2024/02/07 10:08:34;;;;;;;14.10;2.08;;;;;;;;;;5032952;28;20212;-60
2024/02/07 10:11:01;;;;;;;9.00;1.60;;;;;;;;;;5028391;28;20033;-60
2024/02/07 10:13:27;;;;;;;13.60;2.20;;;;;;;;;;5029731;28;20387;-59
2024/02/07 10:15:53;;;;;;;12.93;2.22;;;;;;;;;;5029439;28;20025;-60
2024/02/07 10:18:19;;;;;;;10.48;1.58;;;;;;;;;;5032140;28;20045;-60
2024/02/07 10:20:55;;;;;;;14.57;2.17;;;;;;;;;;5029132;28;20048;-59
2024/02/07 10:23:21;;;;;;;17.00;1.67;;;;;;;;;;5031319;28;20021;-60
2024/02/07 10:25:54;;;;;;;12.32;1.98;;;;;;;;;;5024857;28;20033;-60
2024/02/07 10:28:21;;;;;;;11.95;1.85;;;;;;;;;;5028891;28;20029;-59
2024/02/07 10:31:00;;;;;;;6.78;1.90;;;;;;;;;;5029958;28;20144;-60
2024/02/07 10:33:34;;;;;;;9.60;1.90;;;;;;;;;;5026655;28;20048;-60
2024/02/07 10:36:03;;;;;;;9.10;1.92;;;;;;;;;;5023861;28;20097;-60
2024/02/07 10:38:29;;;;;;;7.25;1.55;;;;;;;;;;5032047;28;20044;-60
2024/02/07 10:40:55;;;;;;;7.05;1.63;;;;;;;;;;5030624;28;20033;-60
2024/02/07 10:43:29;;;;;;;10.95;1.67;;;;;;;;;;5027827;28;20369;-60
2024/02/07 10:46:02;;;;;;;11.48;1.88;;;;;;;;;;5022382;28;20029;-60
2024/02/07 10:48:29;;;;;;;11.07;1.70;;;;;;;;;;5031153;28;20032;-59
2024/02/07 10:50:56;;;;;;;11.48;1.70;;;;;;;;;;5027873;28;20295;-60
2024/02/07 10:53:22;;;;;;;8.65;1.65;;;;;;;;;;5030561;28;20074;-60
2024/02/07 10:55:48;;;;;;;14.60;2.13;;;;;;;;;;5030858;28;20067;-60
2024/02/07 10:58:17;;;;;;;7.82;1.50;;;;;;;;;;5030035;28;20087;-60
2024/02/07 11:00:44;;;;;;;6.05;1.48;;;;;;;;;;5026037;28;20030;-59
2024/02/07 11:03:11;;;;;;;10.27;2.00;;;;;;;;;;5028502;28;20393;-60
2024/02/07 11:05:38;;;;;;;12.43;1.98;;;;;;;;;;5025913;28;20030;-59
2024/02/07 11:08:05;;;;;;;13.07;2.13;;;;;;;;;;5027097;28;20033;-61
2024/02/07 11:10:31;;;;;;;11.60;1.50;;;;;;;;;;5029874;28;20029;-60
2024/02/07 11:12:57;;;;;;;9.95;2.13;;;;;;;;;;5027488;28;20033;-60
2024/02/07 11:15:23;;;;;;;6.85;1.30;;;;;;;;;;5030620;28;20516;-59
2024/02/07 11:17:49;;;;;;;9.73;1.20;;;;;;;;;;5031364;28;20164;-60
2024/02/07 11:20:15;;;;;;;4.25;1.08;;;;;;;;;;5031150;28;20029;-60
2024/02/07 11:22:48;;;;;;;5.65;1.60;;;;;;;;;;5031439;28;20027;-60
2024/02/07 11:25:23;;;;;;;12.88;1.40;;;;;;;;;;5026995;28;20033;-60
2024/02/07 11:27:51;;;;;;;10.77;1.88;;;;;;;;;;5022943;28;20029;-57
2024/02/07 11:30:18;;;;;;;9.55;1.58;;;;;;;;;;5026041;28;20108;-60
2024/02/07 11:32:47;;;;;;;7.07;1.58;;;;;;;;;;5027725;28;20565;-60
2024/02/07 11:35:13;;;;;;;7.45;1.50;;;;;;;;;;5030627;28;20111;-61
2024/02/07 11:37:40;;;;;;;10.77;1.70;;;;;;;;;;5029165;28;20064;-61
2024/02/07 11:40:06;;;;;;;13.43;1.73;;;;;;;;;;5029545;28;20502;-60
2024/02/07 11:42:38;;;;;;;9.68;1.30;;;;;;;;;;5030791;28;20028;-61
2024/02/07 11:45:04;;;;;;;9.40;1.95;;;;;;;;;;5019746;28;20046;-61
2024/02/07 11:47:33;;;;;;;6.20;1.50;;;;;;;;;;5030402;28;20534;-61
2024/02/07 11:50:04;;;;;;;7.55;1.40;;;;;;;;;;5025439;28;20029;-61
2024/02/07 11:52:32;;;;;;;12.23;1.80;;;;;;;;;;5021060;28;20497;-61
2024/02/07 11:55:02;;;;;;;7.30;1.23;;;;;;;;;;5028134;28;20057;-61
2024/02/07 11:57:28;;;;;;;7.55;1.20;;;;;;;;;;5030665;28;20022;-61
2024/02/07 11:59:54;;;;;;;10.00;1.63;;;;;;;;;;5024680;28;20029;-61
2024/02/07 12:02:20;;;;;;;6.47;0.95;;;;;;;;;;5026947;28;20040;-60
2024/02/07 12:04:46;;;;;;;7.90;1.55;;;;;;;;;;5026924;28;20414;-60
2024/02/07 12:07:13;;;;;;;7.53;1.85;;;;;;;;;;5026342;28;20075;-60
2024/02/07 12:09:39;;;;;;;8.60;1.75;;;;;;;;;;5029471;28;20025;-60
2024/02/07 12:12:12;;;;;;;8.20;1.58;;;;;;;;;;5027428;28;20028;-60
2024/02/07 12:14:39;;;;;;;4.43;1.60;;;;;;;;;;5024290;28;20034;-61
2024/02/07 12:17:05;;;;;;;6.63;1.40;;;;;;;;;;5025073;28;20667;-60
2024/02/07 12:19:32;;;;;;;9.60;1.48;;;;;;;;;;5026939;28;20032;-60
2024/02/07 12:21:58;;;;;;;6.68;1.15;;;;;;;;;;5027065;28;20129;-60
2024/02/07 12:24:23;;;;;;;5.20;1.02;;;;;;;;;;5028458;28;20100;-61
2024/02/07 12:26:49;;;;;;;9.63;1.92;;;;;;;;;;5021554;28;20029;-61
2024/02/07 12:29:22;;;;;;;10.50;1.15;;;;;;;;;;5028015;28;20064;-60
2024/02/07 12:31:48;;;;;;;6.53;1.67;;;;;;;;;;5028250;28;20128;-60
2024/02/07 12:34:14;;;;;;;7.20;1.60;;;;;;;;;;5026979;28;20514;-60
2024/02/07 12:36:40;;;;;;;9.90;1.50;;;;;;;;;;5024241;28;20030;-60
2024/02/07 12:39:07;;;;;;;8.60;1.40;;;;;;;;;;5029064;28;20025;-60
2024/02/07 12:41:34;;;;;;;5.10;1.00;;;;;;;;;;5025825;28;20025;-60
2024/02/07 12:43:59;;;;;;;5.82;1.35;;;;;;;;;;5031447;28;20471;-60
2024/02/07 12:46:25;;;;;;;3.83;1.10;;;;;;;;;;5031652;28;20030;-60
2024/02/07 12:48:51;;;;;;;23.48;1.50;;;;;;;;;;5014023;28;20033;-60
2024/02/07 12:51:17;;;;;;;11.93;1.38;;;;;;;;;;5024237;28;20053;-60
2024/02/07 12:53:43;;;;;;;5.72;0.98;;;;;;;;;;5031607;28;20147;-59
2024/02/07 12:56:17;;;;;;;8.10;1.38;;;;;;;;;;5029686;28;20046;-60
2024/02/07 12:58:43;;;;;;;7.10;1.35;;;;;;;;;;5032069;28;20026;-60
2024/02/07 13:01:09;;;;;;;11.25;1.70;;;;;;;;;;5033299;28;20116;-59
2024/02/07 13:03:35;;;;;;;7.38;1.30;;;;;;;;;;5029677;28;20103;-60
2024/02/07 13:06:01;;;;;;;5.95;1.40;;;;;;;;;;5028894;28;20032;-60
2024/02/07 13:08:27;;;;;;;5.18;0.98;;;;;;;;;;5033774;28;20022;-60
2024/02/07 13:10:53;;;;;;;6.15;1.02;;;;;;;;;;5029171;28;20487;-60
2024/02/07 13:13:19;;;;;;;6.68;1.30;;;;;;;;;;5024809;28;20418;-60
2024/02/07 13:15:45;;;;;;;10.90;1.20;;;;;;;;;;5032693;28;20386;-60
2024/02/07 13:18:11;;;;;;;8.30;1.50;;;;;;;;;;5033227;28;20034;-60
2024/02/07 13:20:37;;;;;;;5.97;1.20;;;;;;;;;;5033493;28;20030;-60
2024/02/07 13:23:03;;;;;;;6.55;1.33;;;;;;;;;;5028887;28;20026;-60
2024/02/07 13:25:29;;;;;;;6.47;1.23;;;;;;;;;;5032838;28;20104;-60
2024/02/07 13:27:55;;;;;;;5.28;1.25;;;;;;;;;;5031506;28;20029;-60
2024/02/07 13:30:21;;;;;;;8.35;1.50;;;;;;;;;;5033139;28;20021;-60
2024/02/07 13:32:47;;;;;;;8.20;1.23;;;;;;;;;;5031244;28;20064;-59
2024/02/07 13:35:15;;;;;;;5.25;1.15;;;;;;;;;;5029036;28;20033;-60
2024/02/07 13:37:41;;;;;;;11.85;2.20;;;;;;;;;;5030218;28;20056;-59
2024/02/07 13:40:07;;;;;;;8.95;1.58;;;;;;;;;;5031306;28;20022;-59
2024/02/07 13:42:33;;;;;;;8.10;1.58;;;;;;;;;;5030397;28;20471;-59
2024/02/07 13:44:59;;;;;;;5.15;1.00;;;;;;;;;;5030404;28;20108;-59
2024/02/07 13:47:25;;;;;;;6.68;1.73;;;;;;;;;;5033715;28;20029;-60
2024/02/07 13:49:51;;;;;;;6.50;1.20;;;;;;;;;;5032843;28;20370;-60
2024/02/07 13:52:17;;;;;;;8.32;1.35;;;;;;;;;;5032947;28;20509;-60
2024/02/07 13:54:43;;;;;;;5.22;1.13;;;;;;;;;;5028782;28;20025;-60
2024/02/07 13:57:09;;;;;;;7.10;1.35;;;;;;;;;;5030686;28;20478;-60
2024/02/07 13:59:35;;;;;;;6.07;1.10;;;;;;;;;;5031802;28;20397;-59
2024/02/07 14:02:01;;;;;;;4.60;1.13;;;;;;;;;;5029414;28;20030;-59
2024/02/07 14:04:27;;;;;;;5.22;1.08;;;;;;;;;;5032940;28;20022;-60
2024/02/07 14:06:53;;;;;;;4.28;0.98;;;;;;;;;;5019486;28;20040;-60
2024/02/07 14:09:19;;;;;;;4.68;0.88;;;;;;;;;;5033079;28;20025;-60
2024/02/07 14:11:45;;;;;;;6.35;1.13;;;;;;;;;;5032553;28;20041;-60
2024/02/07 14:14:11;;;;;;;5.13;0.80;;;;;;;;;;5033079;28;20038;-59
2024/02/07 14:16:37;;;;;;;5.40;0.90;;;;;;;;;;5032037;28;20029;-58
2024/02/07 14:19:03;;;;;;;3.15;1.17;;;;;;;;;;5033005;28;20040;-59
2024/02/07 14:21:29;;;;;;;6.35;0.73;;;;;;;;;;5032935;28;20039;-59
2024/02/07 14:23:55;;;;;;;6.03;0.88;;;;;;;;;;5031170;28;20030;-59
2024/02/07 14:26:21;;;;;;;9.45;1.45;;;;;;;;;;5032170;28;20087;-60
2024/02/07 14:28:47;;;;;;;4.85;1.40;;;;;;;;;;5032528;28;20060;-60
2024/02/07 14:31:13;;;;;;;3.70;1.20;;;;;;;;;;5014171;28;20033;-59
2024/02/07 14:33:39;;;;;;;2.67;0.77;;;;;;;;;;5030452;28;20167;-60
2024/02/07 14:36:06;;;;;;;6.95;1.08;;;;;;;;;;5031941;28;20041;-60
2024/02/07 14:38:32;;;;;;;5.88;1.10;;;;;;;;;;5024397;28;20025;-60
2024/02/07 14:41:00;;;;;;;3.50;0.93;;;;;;;;;;5032599;28;20026;-59
2024/02/07 14:43:26;;;;;;;5.60;0.80;;;;;;;;;;5026337;28;20040;-59
2024/02/07 14:45:52;;;;;;;5.38;1.42;;;;;;;;;;5027976;28;20033;-61
2024/02/07 14:48:17;;;;;;;5.28;0.75;;;;;;;;;;5031853;28;20018;-60
2024/02/07 14:50:43;;;;;;;5.13;0.90;;;;;;;;;;5032086;28;20048;-59
2024/02/07 14:53:10;;;;;;;8.18;1.50;;;;;;;;;;5027324;28;20021;-60
2024/02/07 14:55:38;;;;;;;5.28;1.27;;;;;;;;;;5032031;28;20486;-60
2024/02/07 14:58:04;;;;;;;7.95;2.22;;;;;;;;;;5032131;28;20033;-60
2024/02/07 15:00:30;;;;;;;2.67;1.20;;;;;;;;;;5031350;28;20034;-60
2024/02/07 15:02:56;;;;;;;3.50;0.95;;;;;;;;;;5027147;28;20041;-60
2024/02/07 15:05:22;;;;;;;7.78;0.77;;;;;;;;;;5030899;28;20409;-60
2024/02/07 15:07:49;;;;;;;4.70;1.20;;;;;;;;;;5031403;28;20032;-60
2024/02/07 15:10:15;;;;;;;3.33;0.90;;;;;;;;;;5030835;28;20432;-60
2024/02/07 15:12:41;;;;;;;6.13;1.15;;;;;;;;;;5030884;28;20467;-60
2024/02/07 15:15:08;;;;;;;4.20;0.82;;;;;;;;;;5031547;28;20109;-60
2024/02/07 15:17:34;;;;;;;9.40;1.63;;;;;;;;;;5027687;28;20107;-60
2024/02/07 15:20:00;;;;;;;6.78;1.23;;;;;;;;;;5029140;28;20037;-60
2024/02/07 15:22:26;;;;;;;5.38;1.13;;;;;;;;;;5031363;28;20467;-60
2024/02/07 15:24:52;;;;;;;5.53;0.93;;;;;;;;;;5031204;28;20339;-60
2024/02/07 15:27:18;;;;;;;2.85;0.95;;;;;;;;;;5030628;28;21901;-60
2024/02/07 15:29:44;;;;;;;5.32;0.73;;;;;;;;;;5030853;28;20059;-60
2024/02/07 15:32:10;;;;;;;4.28;1.27;;;;;;;;;;5031478;28;20738;-60
2024/02/07 15:34:36;;;;;;;2.40;0.90;;;;;;;;;;5030773;28;20018;-60
2024/02/07 15:37:02;;;;;;;14.90;0.80;;;;;;;;;;5029913;28;20037;-60
2024/02/07 15:39:28;;;;;;;5.45;1.15;;;;;;;;;;5029847;28;20100;-59
2024/02/07 15:41:54;;;;;;;11.00;1.30;;;;;;;;;;5031145;28;20033;-59